Sutton, North Dakota
Current Conditions -  °F | °C
As of 6:56 PM on Saturday 22 Nov 2014 (Local Time) from KJMS Reporting Station
Broken Clouds Broken Clouds  
Wind Chill: 27°   Ceiling: 11000
Heat Index: 33°   Visibility: 10mi
Dew Point: 28°   Wind: 7mph
Humidity: 82%   Direction: 190°S
Pressure: 29.34"   Gusts: NA
Location:  47.4°N, 98.44°W
Report Text: KJMS 230056Z AUTO 19006KT 10SM BKN110 01/M02 A2934 RMK AO2 SLP955 T00061022
Loading
Personal Weather Stations






























Interactive Weather Map New forecast layout! Learn more

10-Day Weather Forecast

Advertisements
Track Severe Weather on mobile